Time;durP1;ratioP1;P1;durP2;ratioP2;P2;SDS_P1;SDS_P2;PMS_P1;PMS_P2;Temp;Humidity;BMP_temperature;BMP_pressure;BME280_temperature;BME280_humidity;BME280_pressure;Samples;Min_cycle;Max_cycle;Signal;HPM_P1;HPM_P2
2023/04/17 00:09:49;;;;;;;45.90;28.80;;;;;;;5.79;73.25;98831.17;435601;1253;111885;-41
2023/04/17 00:19:56;;;;;;;43.60;28.40;;;;;;;5.84;73.57;98820.80;435368;1254;107426;-42
2023/04/17 00:30:03;;;;;;;45.00;26.40;;;;;;;5.79;73.33;98821.25;435328;1250;99253;-42
2023/04/17 00:40:12;;;;;;;46.30;32.20;;;;;;;5.65;73.77;98821.81;435369;1264;107246;-40
2023/04/17 00:50:18;;;;;;;57.80;34.70;;;;;;;5.46;73.72;98832.83;435325;1266;99202;-41
2023/04/17 01:00:24;;;;;;;55.00;35.10;;;;;;;5.12;73.87;98831.62;435333;1250;111546;-41
2023/04/17 01:10:31;;;;;;;40.30;27.00;;;;;;;4.96;74.04;98834.11;435228;1254;108297;-42
2023/04/17 01:31:19;;;;;;;40.70;25.50;;;;;;;4.88;74.57;98833.48;433538;1257;111662;-41
2023/04/17 01:41:27;;;;;;;61.10;36.10;;;;;;;4.85;74.55;98832.20;433888;1258;106706;-41
2023/04/17 01:51:35;;;;;;;59.10;35.50;;;;;;;4.70;74.96;98831.72;433785;1258;98035;-42
2023/04/17 02:01:43;;;;;;;36.20;25.30;;;;;;;4.61;75.19;98833.86;433624;1258;109639;-41
2023/04/17 02:11:50;;;;;;;39.10;24.90;;;;;;;4.53;75.20;98835.16;433601;1261;99234;-41
2023/04/17 02:21:57;;;;;;;35.50;24.40;;;;;;;4.54;75.38;98839.60;433753;1258;111955;-40
2023/04/17 02:32:04;;;;;;;41.20;28.00;;;;;;;4.58;75.65;98834.44;433788;1260;109076;-41
2023/04/17 02:52:18;;;;;;;56.20;34.20;;;;;;;4.82;76.64;98838.45;434120;1261;108058;-41
2023/04/17 03:02:25;;;;;;;47.00;32.50;;;;;;;5.05;76.90;98838.21;433920;1270;99244;-41
2023/04/17 03:12:33;;;;;;;56.30;33.30;;;;;;;5.27;76.95;98834.92;434092;1260;111449;-41
2023/04/17 03:22:41;;;;;;;44.30;28.60;;;;;;;5.48;77.30;98847.77;434065;1255;107565;-43
2023/04/17 03:32:48;;;;;;;43.90;28.30;;;;;;;5.56;77.37;98856.11;433988;1261;99266;-40
2023/04/17 03:42:54;;;;;;;44.90;29.00;;;;;;;5.71;77.57;98864.11;433643;1260;423414;-40
2023/04/17 03:53:01;;;;;;;49.90;29.60;;;;;;;5.79;77.73;98867.63;433971;1255;99295;-40
2023/04/17 04:03:08;;;;;;;64.70;35.20;;;;;;;5.82;78.10;98868.98;433961;1261;110604;-41
2023/04/17 04:13:16;;;;;;;61.50;34.00;;;;;;;5.81;78.33;98870.87;433951;1260;107568;-41
2023/04/17 04:23:23;;;;;;;48.30;28.90;;;;;;;5.72;78.43;98883.57;434069;1259;99287;-41
2023/04/17 04:33:31;;;;;;;38.40;24.00;;;;;;;5.70;78.89;98892.58;433916;1260;107628;-41
2023/04/17 04:43:39;;;;;;;41.90;26.20;;;;;;;5.71;79.65;98897.83;434233;1259;99317;-41
2023/04/17 04:53:46;;;;;;;45.40;27.30;;;;;;;5.70;80.55;98897.17;433897;1261;112054;-40
2023/04/17 05:03:53;;;;;;;46.70;27.80;;;;;;;5.84;80.87;98896.86;433949;1255;108342;-40
2023/04/17 05:14:01;;;;;;;42.80;27.80;;;;;;;6.12;80.87;98892.35;433975;1261;99340;-41
2023/04/17 05:24:06;;;;;;;46.00;26.20;;;;;;;6.24;81.06;98899.81;434113;1255;108619;-41
2023/04/17 05:34:13;;;;;;;37.60;25.30;;;;;;;6.26;81.41;98900.52;434124;1261;99247;-42
2023/04/17 05:44:20;;;;;;;41.40;26.00;;;;;;;6.33;81.97;98912.82;433955;1255;112940;-40
2023/04/17 06:04:33;;;;;;;41.10;24.30;;;;;;;6.59;83.06;98924.80;433968;1261;99265;-40
2023/04/17 06:14:41;;;;;;;42.00;26.80;;;;;;;6.73;83.43;98931.40;433899;1259;108058;-41
2023/04/17 06:24:48;;;;;;;44.30;25.20;;;;;;;6.79;84.40;98933.48;433919;1256;99329;-40
2023/04/17 06:34:55;;;;;;;44.60;25.80;;;;;;;6.88;85.02;98929.46;434012;1260;113375;-41
2023/04/17 06:55:13;;;;;;;48.40;27.90;;;;;;;7.32;85.68;98939.62;433993;1261;99233;-41
2023/04/17 07:05:20;;;;;;;50.30;27.80;;;;;;;7.49;86.07;98953.02;433965;1255;109760;-40
2023/04/17 07:15:29;;;;;;;50.90;27.00;;;;;;;7.72;85.89;98959.27;433918;1255;99237;-40
2023/04/17 07:25:35;;;;;;;46.20;26.20;;;;;;;7.90;86.06;98969.63;434088;1255;112339;-40
2023/04/17 07:35:44;;;;;;;65.00;33.00;;;;;;;8.05;85.93;98977.40;434180;1256;108712;-39
2023/04/17 07:45:51;;;;;;;56.40;28.90;;;;;;;8.18;85.94;98987.14;434046;1255;98845;-40
2023/04/17 07:55:59;;;;;;;57.00;30.10;;;;;;;8.31;86.33;98987.22;434205;1261;107839;-43
2023/04/17 08:06:07;;;;;;;43.40;25.40;;;;;;;8.52;86.49;98991.59;434050;1261;99340;-40
2023/04/17 08:16:14;;;;;;;41.40;25.90;;;;;;;8.77;86.48;98988.31;434109;1260;112718;-40
2023/04/17 08:26:22;;;;;;;38.60;24.80;;;;;;;8.88;86.97;98991.11;434454;1260;107361;-40
2023/04/17 08:36:30;;;;;;;45.30;26.40;;;;;;;9.14;86.58;98998.89;434042;1261;99260;-41
2023/04/17 08:46:39;;;;;;;45.60;29.20;;;;;;;9.25;86.78;99007.43;434162;1262;109139;-42
2023/04/17 08:56:47;;;;;;;83.20;29.70;;;;;;;9.27;87.08;99007.25;434131;1261;99107;-41
2023/04/17 09:06:53;;;;;;;41.80;26.50;;;;;;;9.86;86.85;99008.89;433917;1261;112342;-42
2023/04/17 09:17:00;;;;;;;45.10;26.00;;;;;;;9.91;86.70;99016.29;433685;1259;107701;-42
2023/04/17 09:37:28;;;;;;;50.30;28.00;;;;;;;10.23;86.85;99014.39;434100;1256;107675;-41
2023/04/17 09:47:36;;;;;;;41.00;25.40;;;;;;;10.61;86.58;99016.38;434149;1260;98003;-41
2023/04/17 09:57:44;;;;;;;38.30;24.20;;;;;;;10.90;85.99;99009.33;434086;1259;113570;-41
2023/04/17 10:07:51;;;;;;;42.00;27.50;;;;;;;11.02;85.63;99009.77;434065;1262;107094;-41
2023/04/17 10:28:46;;;;;;;35.80;22.90;;;;;;;11.58;84.34;99000.64;433940;1261;107523;-40
2023/04/17 10:39:02;;;;;;;36.00;21.40;;;;;;;11.88;83.01;98993.02;434048;1255;99254;-40
2023/04/17 10:49:10;;;;;;;28.40;20.50;;;;;;;12.22;82.28;98989.01;433960;1261;111173;-41
2023/04/17 10:59:19;;;;;;;26.60;16.70;;;;;;;12.51;80.93;98986.23;434110;1256;107322;-46
2023/04/17 11:19:35;;;;;;;25.80;19.40;;;;;;;12.93;78.24;98969.30;433981;1262;107739;-41
2023/04/17 11:29:44;;;;;;;23.40;17.50;;;;;;;13.39;77.78;98963.05;434794;1260;99794;-41
2023/04/17 11:39:51;;;;;;;27.50;16.70;;;;;;;13.50;76.86;98964.41;433833;1256;112282;-43
2023/04/17 11:49:59;;;;;;;22.80;14.30;;;;;;;13.48;76.03;98966.45;434010;1260;107251;-41
2023/04/17 12:00:15;;;;;;;20.50;12.30;;;;;;;13.44;74.97;98958.24;434030;1260;99356;-41
2023/04/17 12:10:22;;;;;;;19.70;13.00;;;;;;;13.29;74.31;98966.70;434227;1272;106696;-41
2023/04/17 12:20:30;;;;;;;18.90;13.30;;;;;;;13.37;74.34;98969.50;434198;1260;99282;-41
2023/04/17 12:30:38;;;;;;;19.40;13.70;;;;;;;13.36;73.89;98965.07;434062;1260;112869;-40
2023/04/17 12:40:45;;;;;;;22.30;15.50;;;;;;;13.23;73.82;98964.94;434126;1269;107970;-41
2023/04/17 12:50:53;;;;;;;20.20;14.50;;;;;;;13.27;73.66;98964.77;433911;1260;99240;-40
2023/04/17 13:01:00;;;;;;;18.80;12.70;;;;;;;13.15;73.54;98966.81;434062;1260;108470;-41
2023/04/17 13:11:08;;;;;;;18.70;14.00;;;;;;;13.19;73.40;98970.29;433995;1269;99253;-41
2023/04/17 13:21:15;;;;;;;29.50;15.20;;;;;;;13.15;73.25;98974.29;433844;1269;111013;-41
2023/04/17 13:41:29;;;;;;;19.10;14.40;;;;;;;13.37;73.03;98965.64;434018;1260;99349;-41
2023/04/17 13:51:35;;;;;;;18.50;14.00;;;;;;;13.29;72.81;98966.11;434043;1269;108596;-40
2023/04/17 14:01:42;;;;;;;19.20;13.20;;;;;;;13.01;72.58;98970.46;433910;1262;99337;-41
2023/04/17 14:11:50;;;;;;;21.40;14.70;;;;;;;12.75;73.61;98980.05;434039;1269;112185;-41
2023/04/17 14:21:57;;;;;;;19.10;13.70;;;;;;;12.56;74.28;98981.01;433855;1260;109730;-41
2023/04/17 14:32:05;;;;;;;17.40;12.80;;;;;;;12.76;74.50;98978.12;434076;1257;99288;-41
2023/04/17 14:42:12;;;;;;;43.60;15.40;;;;;;;12.75;74.45;98972.87;433961;1269;106521;-41
2023/04/17 14:52:20;;;;;;;17.90;12.00;;;;;;;12.61;74.45;98974.78;434112;1258;99263;-41
2023/04/17 15:02:27;;;;;;;18.80;13.80;;;;;;;12.40;75.02;98969.29;433932;1258;112177;-42
2023/04/17 15:12:35;;;;;;;14.80;12.20;;;;;;;12.35;75.32;98968.88;434131;1258;108512;-41
2023/04/17 15:22:42;;;;;;;22.30;13.70;;;;;;;12.35;75.69;98968.60;433901;1261;99231;-42
2023/04/17 15:32:49;;;;;;;26.20;15.90;;;;;;;12.28;76.03;98966.70;433934;1261;108839;-39
2023/04/17 15:42:57;;;;;;;22.40;15.60;;;;;;;12.23;76.24;98962.88;433712;1261;282402;-41
2023/04/17 15:53:05;;;;;;;20.50;14.80;;;;;;;12.15;76.43;98964.93;434116;1257;111185;-40
2023/04/17 16:03:14;;;;;;;27.50;16.30;;;;;;;12.00;76.69;98963.84;434010;1257;108796;-41
2023/04/17 16:13:22;;;;;;;17.80;13.10;;;;;;;11.90;77.31;98963.68;433969;1258;99419;-41
2023/04/17 16:23:29;;;;;;;22.20;15.60;;;;;;;11.79;77.72;98959.81;433929;1260;108705;-41
2023/04/17 16:33:38;;;;;;;31.10;18.00;;;;;;;11.65;77.89;98961.09;433935;1257;97933;-42
2023/04/17 16:43:46;;;;;;;26.00;17.90;;;;;;;11.56;78.41;98963.63;434005;1261;111733;-41
2023/04/17 16:53:53;;;;;;;26.60;17.40;;;;;;;11.43;79.21;98976.13;433983;1257;107262;-40
2023/04/17 17:04:00;;;;;;;27.70;18.50;;;;;;;11.26;79.89;98992.05;434046;1261;99355;-41
2023/04/17 17:14:07;;;;;;;32.30;20.00;;;;;;;11.01;81.28;98999.59;433836;1260;108161;-41
2023/04/17 17:24:14;;;;;;;36.20;24.90;;;;;;;10.91;81.50;99003.48;433922;1260;99269;-41
2023/04/17 17:34:22;;;;;;;27.00;16.60;;;;;;;10.87;81.61;99016.29;433900;1256;113424;-41
2023/04/17 17:44:33;;;;;;;21.60;15.30;;;;;;;10.76;82.25;99018.41;433952;1255;107652;-41
2023/04/17 17:54:40;;;;;;;22.80;13.10;;;;;;;10.62;82.61;99031.06;433988;1260;99318;-40
2023/04/17 18:04:48;;;;;;;18.30;11.00;;;;;;;10.48;82.85;99036.58;433831;1261;108609;-39
2023/04/17 18:14:55;;;;;;;19.70;12.50;;;;;;;10.32;82.52;99048.20;433831;1260;99233;-43
2023/04/17 18:25:01;;;;;;;20.20;11.10;;;;;;;10.16;82.99;99065.40;433893;1269;112741;-40
2023/04/17 18:35:09;;;;;;;24.50;12.80;;;;;;;9.99;83.25;99071.86;434094;1257;107246;-40
2023/04/17 18:45:16;;;;;;;20.60;13.00;;;;;;;9.89;83.21;99076.92;433934;1256;99129;-41
2023/04/17 18:55:22;;;;;;;22.10;12.90;;;;;;;9.79;83.15;99086.35;433765;1257;109434;-40
2023/04/17 19:05:30;;;;;;;17.00;12.40;;;;;;;9.65;83.53;99092.16;433842;1260;99266;-40
2023/04/17 19:15:38;;;;;;;20.80;14.00;;;;;;;9.46;84.21;99098.61;433765;1260;111333;-41
2023/04/17 19:25:51;;;;;;;19.40;13.30;;;;;;;9.32;84.57;99099.67;433807;1261;107954;-41
2023/04/17 19:35:59;;;;;;;24.50;13.60;;;;;;;9.20;85.36;99091.40;434145;1260;99234;-41
2023/04/17 19:46:07;;;;;;;24.70;14.90;;;;;;;9.12;86.34;99089.93;433791;1256;106888;-40
2023/04/17 19:56:15;;;;;;;21.00;15.00;;;;;;;9.13;86.33;99085.99;433917;1260;99227;-41
2023/04/17 20:06:22;;;;;;;22.50;14.20;;;;;;;9.12;86.85;99089.37;433977;1260;110451;-42
2023/04/17 20:16:29;;;;;;;17.60;13.00;;;;;;;9.09;88.01;99085.27;433844;1261;106411;-40
2023/04/17 20:26:36;;;;;;;22.10;12.90;;;;;;;9.08;88.86;99083.09;433818;1261;99027;-41
2023/04/17 20:36:44;;;;;;;21.80;13.40;;;;;;;9.05;89.26;99082.66;433907;1255;108560;-40
2023/04/17 20:46:51;;;;;;;18.10;12.90;;;;;;;9.01;89.73;99077.77;433932;1260;99929;-40
2023/04/17 20:56:58;;;;;;;17.70;11.30;;;;;;;8.95;90.24;99073.76;433943;1256;111498;-41
2023/04/17 21:07:05;;;;;;;17.20;11.90;;;;;;;8.90;91.02;99076.95;433820;1261;108576;-40
2023/04/17 21:17:13;;;;;;;17.60;11.00;;;;;;;8.88;91.29;99084.29;433865;1258;99266;-41
2023/04/17 21:27:20;;;;;;;14.70;10.70;;;;;;;8.87;91.50;99083.89;433732;1261;107144;-41
2023/04/17 21:37:27;;;;;;;14.80;10.70;;;;;;;8.84;92.15;99084.42;433892;1260;98832;-40
2023/04/17 22:07:37;;;;;;;17.70;11.40;;;;;;;8.62;92.34;99081.44;423367;1302;635951;-39
2023/04/17 22:18:01;;;;;;;16.80;10.30;;;;;;;8.59;92.67;99083.18;433196;1257;403351;-41
2023/04/17 22:38:14;;;;;;;13.00;9.70;;;;;;;8.63;93.18;99080.42;433761;1258;95484;-42
2023/04/17 22:48:21;;;;;;;10.90;8.10;;;;;;;8.63;93.16;99083.91;433901;1258;107876;-40
2023/04/17 23:08:38;;;;;;;8.90;7.10;;;;;;;8.56;93.60;99082.80;433893;1261;95441;-40
2023/04/17 23:18:45;;;;;;;10.10;7.00;;;;;;;8.48;94.07;99074.72;433918;1257;106742;-41
2023/04/17 23:28:53;;;;;;;11.90;8.20;;;;;;;8.45;94.00;99071.48;433741;1270;108111;-40
2023/04/17 23:39:00;;;;;;;7.50;6.10;;;;;;;8.45;93.98;99069.86;434133;1257;95074;-42
2023/04/17 23:49:08;;;;;;;10.50;6.50;;;;;;;8.42;94.81;99066.34;433899;1263;107335;-41
